Terminal Aerodrome Forecast
Issued by NWS Cleveland, OH

Home | Current Version | Previous Version | Graphics & Text | Print | Product List | Glossary On
Versions: 1 2 3 4 5 6 7 8 9 10 11 12 13 14 15 16
000
FTUS41 KCLE 261135
TAFTOL
TAF
KTOL 261135Z 2612/2712 35004KT 1/4SM FG VV002
     FM261230 35004KT 1SM BR FEW002 SCT020
     FM261300 35004KT 2SM BR SCT020
     FM261400 35004KT 6SM BR SCT020
      TEMPO 2614/2617 BKN020
     FM261700 06005KT P6SM FEW020 SCT250
     FM262100 03005KT P6SM SKC=

USA.gov is the U.S. government's official web portal to all federal, state and local government web resources and services.